createdAt,value
2022-07-28T00:00:40.540Z,100.00
2022-07-28T00:01:42.202Z,100.00
2022-07-28T00:02:43.921Z,100.00
2022-07-28T00:03:47.195Z,100.00
2022-07-28T00:04:48.769Z,100.00
2022-07-28T00:05:50.416Z,100.00
2022-07-28T00:06:52.044Z,100.00
2022-07-28T00:07:53.722Z,100.00
2022-07-28T00:08:55.505Z,100.00
2022-07-28T00:10:00.579Z,100.00
2022-07-28T00:11:02.710Z,100.00
2022-07-28T00:12:04.653Z,100.00
2022-07-28T00:13:06.809Z,100.00
2022-07-28T00:14:08.760Z,100.00
2022-07-28T00:15:11.982Z,100.00
2022-07-28T00:16:13.668Z,100.00
2022-07-28T00:17:15.399Z,100.00
2022-07-28T00:18:16.998Z,100.00
2022-07-28T00:19:18.619Z,100.00
2022-07-28T00:20:21.109Z,100.00
2022-07-28T00:21:24.383Z,100.00
2022-07-28T00:22:26.042Z,100.00
2022-07-28T00:23:32.551Z,100.00
2022-07-28T00:24:41.293Z,100.00
2022-07-28T00:25:42.881Z,100.00
2022-07-28T00:26:46.636Z,100.00
2022-07-28T00:27:48.602Z,100.00
2022-07-28T00:28:50.316Z,100.00
2022-07-28T00:29:51.990Z,100.00
2022-07-28T00:30:55.605Z,100.00
2022-07-28T00:31:57.603Z,100.00
2022-07-28T00:32:59.877Z,100.00
2022-07-28T00:34:01.501Z,100.00
2022-07-28T00:35:03.647Z,100.00
2022-07-28T00:36:06.407Z,100.00
2022-07-28T00:37:08.125Z,100.00
2022-07-28T00:38:15.072Z,100.00
2022-07-28T00:39:16.946Z,100.00
2022-07-28T00:40:18.611Z,100.00
2022-07-28T00:41:20.718Z,99.96
2022-07-28T00:42:22.515Z,100.00
2022-07-28T00:43:24.119Z,100.00
2022-07-28T00:44:25.738Z,100.00
2022-07-28T00:45:27.309Z,100.00
2022-07-28T00:46:29.018Z,100.00
2022-07-28T00:47:33.640Z,99.91
2022-07-28T00:48:48.337Z,100.00
2022-07-28T00:49:50.467Z,97.78
2022-07-28T00:50:53.014Z,97.63
2022-07-28T00:51:54.707Z,96.51
2022-07-28T00:52:56.496Z,97.54
2022-07-28T00:53:58.702Z,98.64
2022-07-28T00:55:02.880Z,98.68
2022-07-28T00:56:06.974Z,97.22
2022-07-28T00:57:09.020Z,99.72
2022-07-28T00:58:10.757Z,98.75
2022-07-28T00:59:12.387Z,98.53
2022-07-28T01:00:14.483Z,99.49
2022-07-28T01:01:20.232Z,99.59
2022-07-28T01:02:22.105Z,100.00
2022-07-28T01:03:24.887Z,100.00
2022-07-28T01:04:26.906Z,100.00
2022-07-28T01:05:44.439Z,100.00
2022-07-28T01:06:56.614Z,100.00
2022-07-28T01:08:21.378Z,100.00
2022-07-28T01:09:25.578Z,100.00
2022-07-28T01:10:45.898Z,100.00
2022-07-28T01:12:05.195Z,100.00
2022-07-28T01:13:58.705Z,100.00
2022-07-28T01:15:19.865Z,100.00
2022-07-28T01:16:23.593Z,100.00
2022-07-28T01:18:02.647Z,100.00
2022-07-28T01:19:19.523Z,100.00
2022-07-28T01:20:32.718Z,100.00
2022-07-28T01:21:36.126Z,100.00
2022-07-28T01:22:42.438Z,100.00
2022-07-28T01:24:21.737Z,100.00
2022-07-28T01:25:48.866Z,100.00
2022-07-28T01:26:56.232Z,100.00
2022-07-28T01:28:14.952Z,100.00
2022-07-28T01:29:44.416Z,100.00
2022-07-28T01:30:54.745Z,100.00
2022-07-28T01:32:09.182Z,100.00
2022-07-28T01:33:25.609Z,100.00
2022-07-28T01:34:34.877Z,100.00
2022-07-28T01:35:44.451Z,100.00
2022-07-28T01:36:59.728Z,100.00
2022-07-28T01:38:04.951Z,100.00
2022-07-28T01:39:06.841Z,100.00
2022-07-28T01:40:10.989Z,100.00
2022-07-28T01:41:17.936Z,100.00
2022-07-28T01:42:23.798Z,100.00
2022-07-28T01:43:28.580Z,100.00
2022-07-28T01:44:34.725Z,100.00
2022-07-28T01:45:38.366Z,100.00
2022-07-28T01:46:41.809Z,100.00
2022-07-28T01:47:45.515Z,100.00
2022-07-28T01:48:49.158Z,100.00
2022-07-28T01:49:52.521Z,100.00
2022-07-28T01:50:56.453Z,100.00
2022-07-28T01:52:00.693Z,100.00
2022-07-28T01:53:04.010Z,100.00
2022-07-28T01:54:08.028Z,100.00
2022-07-28T01:55:10.993Z,100.00
2022-07-28T01:56:15.706Z,100.00
2022-07-28T01:57:18.427Z,100.00
2022-07-28T01:58:23.116Z,100.00
2022-07-28T01:59:26.644Z,100.00
2022-07-28T02:00:28.841Z,100.00
2022-07-28T02:01:35.339Z,100.00
2022-07-28T02:02:37.986Z,100.00
2022-07-28T02:03:41.480Z,100.00
2022-07-28T02:04:45.076Z,100.00
2022-07-28T02:05:50.429Z,100.00
2022-07-28T02:06:53.968Z,100.00
2022-07-28T02:07:57.080Z,100.00
2022-07-28T02:09:01.096Z,100.00
2022-07-28T02:10:04.839Z,100.00
2022-07-28T02:11:25.853Z,100.00
2022-07-28T02:12:28.836Z,100.00
2022-07-28T02:13:32.985Z,100.00
2022-07-28T02:14:36.473Z,100.00
2022-07-28T02:15:40.887Z,100.00
2022-07-28T02:16:47.060Z,100.00
2022-07-28T02:17:51.909Z,100.00
2022-07-28T02:18:57.897Z,100.00
2022-07-28T02:20:01.096Z,100.00
2022-07-28T02:21:03.060Z,100.00
2022-07-28T02:22:05.751Z,100.00
2022-07-28T02:23:08.750Z,100.00
2022-07-28T02:24:13.238Z,100.00
2022-07-28T02:25:15.231Z,100.00
2022-07-28T02:26:18.848Z,100.00
2022-07-28T02:27:41.493Z,100.00
2022-07-28T02:28:46.464Z,100.00
2022-07-28T02:29:51.810Z,100.00
2022-07-28T02:31:09.194Z,100.00
2022-07-28T02:32:26.934Z,100.00
2022-07-28T02:33:59.037Z,100.00
2022-07-28T02:35:02.015Z,100.00
2022-07-28T02:36:25.214Z,100.00
2022-07-28T02:37:29.364Z,100.00
2022-07-28T02:38:38.989Z,99.81
2022-07-28T02:39:55.325Z,100.00
2022-07-28T02:41:10.765Z,100.00
2022-07-28T02:42:22.969Z,100.00
2022-07-28T02:43:45.810Z,99.75
2022-07-28T02:45:03.089Z,99.78
2022-07-28T02:46:10.096Z,99.50
2022-07-28T02:47:15.072Z,99.48
2022-07-28T02:48:21.773Z,100.00
2022-07-28T02:49:28.531Z,100.00
2022-07-28T02:50:30.167Z,100.00
2022-07-28T02:51:34.820Z,100.00
2022-07-28T02:52:37.595Z,100.00
2022-07-28T02:53:40.005Z,100.00
2022-07-28T02:54:42.913Z,100.00
2022-07-28T02:55:47.662Z,100.00
2022-07-28T02:56:53.343Z,100.00
2022-07-28T02:57:56.966Z,100.00
2022-07-28T02:58:58.807Z,100.00
2022-07-28T03:00:01.972Z,100.00
2022-07-28T03:01:04.625Z,100.00
2022-07-28T03:02:08.079Z,100.00
2022-07-28T03:03:10.845Z,100.00
2022-07-28T03:04:14.261Z,100.00
2022-07-28T03:05:16.825Z,100.00
2022-07-28T03:06:28.528Z,100.00
2022-07-28T03:07:32.989Z,100.00
2022-07-28T03:08:35.026Z,100.00
2022-07-28T03:09:44.728Z,100.00
2022-07-28T03:10:46.388Z,100.00
2022-07-28T03:11:54.234Z,100.00
2022-07-28T03:12:59.496Z,100.00
2022-07-28T03:14:01.961Z,100.00
2022-07-28T03:15:03.841Z,100.00
2022-07-28T03:16:06.793Z,100.00
2022-07-28T03:17:08.840Z,100.00
2022-07-28T03:18:10.450Z,100.00
2022-07-28T03:19:12.131Z,100.00
2022-07-28T03:20:13.931Z,100.00
2022-07-28T03:21:15.538Z,100.00
2022-07-28T03:22:17.411Z,100.00
2022-07-28T03:23:20.954Z,100.00
2022-07-28T03:24:25.568Z,100.00
2022-07-28T03:25:46.629Z,100.00
2022-07-28T03:26:58.104Z,100.00
2022-07-28T03:28:01.003Z,100.00
2022-07-28T03:29:03.064Z,100.00
2022-07-28T03:30:09.753Z,100.00
2022-07-28T03:31:13.647Z,100.00
2022-07-28T03:32:18.824Z,100.00
2022-07-28T03:33:20.677Z,100.00
2022-07-28T03:34:23.081Z,100.00
2022-07-28T03:35:26.054Z,100.00
2022-07-28T03:36:36.226Z,100.00
2022-07-28T03:37:50.412Z,100.00
2022-07-28T03:38:58.497Z,100.00
2022-07-28T03:40:01.061Z,100.00
2022-07-28T03:41:06.699Z,100.00
2022-07-28T03:42:09.595Z,100.00
2022-07-28T03:43:13.058Z,100.00
2022-07-28T03:44:26.927Z,100.00
2022-07-28T03:45:30.567Z,100.00
2022-07-28T03:46:32.756Z,100.00
2022-07-28T03:47:34.475Z,100.00
2022-07-28T03:48:36.138Z,100.00
2022-07-28T03:49:38.667Z,100.00
2022-07-28T03:50:40.291Z,100.00
2022-07-28T03:51:41.873Z,100.00
2022-07-28T03:52:43.468Z,100.00
2022-07-28T03:53:46.479Z,100.00
2022-07-28T03:54:48.051Z,100.00
2022-07-28T03:55:52.553Z,100.00
2022-07-28T03:56:54.157Z,100.00
2022-07-28T03:57:57.154Z,100.00
2022-07-28T03:58:58.804Z,100.00
2022-07-28T04:00:00.401Z,100.00
2022-07-28T04:01:02.074Z,100.00
2022-07-28T04:02:04.140Z,100.00
2022-07-28T04:03:06.053Z,100.00
2022-07-28T04:04:27.829Z,100.00
2022-07-28T04:05:29.438Z,100.00
2022-07-28T04:06:31.061Z,100.00
2022-07-28T04:07:32.985Z,100.00
2022-07-28T04:08:35.045Z,100.00
2022-07-28T04:09:36.656Z,100.00
2022-07-28T04:10:38.270Z,100.00
2022-07-28T04:11:39.850Z,100.00
2022-07-28T04:12:55.648Z,100.00
2022-07-28T04:13:57.401Z,100.00
2022-07-28T04:14:59.033Z,100.00
2022-07-28T04:16:00.863Z,100.00
2022-07-28T04:17:02.536Z,100.00
2022-07-28T04:18:04.365Z,100.00
2022-07-28T04:19:05.973Z,100.00
2022-07-28T04:20:08.708Z,100.00
2022-07-28T04:21:10.297Z,100.00
2022-07-28T04:22:11.927Z,100.00
2022-07-28T04:23:13.614Z,100.00
2022-07-28T04:24:15.549Z,100.00
2022-07-28T04:25:19.734Z,100.00
2022-07-28T04:26:21.325Z,100.00
2022-07-28T04:27:23.012Z,100.00
2022-07-28T04:28:25.351Z,100.00
2022-07-28T04:29:27.370Z,100.00
2022-07-28T04:30:29.464Z,100.00
2022-07-28T04:31:31.464Z,100.00
2022-07-28T04:32:33.204Z,100.00
2022-07-28T04:33:34.885Z,100.00
2022-07-28T04:34:36.499Z,100.00
2022-07-28T04:35:38.128Z,100.00
2022-07-28T04:36:43.498Z,100.00
2022-07-28T04:37:46.292Z,100.00
2022-07-28T04:38:47.881Z,100.00
2022-07-28T04:39:51.086Z,100.00
2022-07-28T04:40:52.953Z,100.00
2022-07-28T04:41:54.591Z,100.00
2022-07-28T04:42:56.229Z,100.00
2022-07-28T04:43:59.383Z,100.00
2022-07-28T04:45:01.047Z,100.00
2022-07-28T04:46:02.793Z,100.00
2022-07-28T04:47:06.470Z,100.00
2022-07-28T04:48:08.182Z,100.00
2022-07-28T04:49:09.826Z,100.00
2022-07-28T04:50:15.207Z,100.00
2022-07-28T04:51:16.846Z,100.00
2022-07-28T04:52:19.161Z,98.87
2022-07-28T04:53:22.558Z,98.49
2022-07-28T04:54:26.685Z,98.02
2022-07-28T04:55:28.544Z,98.06
2022-07-28T04:56:30.113Z,97.21
2022-07-28T04:57:31.732Z,97.00
2022-07-28T04:58:33.355Z,96.70
2022-07-28T04:59:35.697Z,97.42
2022-07-28T05:00:37.357Z,97.41
2022-07-28T05:01:40.855Z,97.23
2022-07-28T05:02:44.936Z,97.19
2022-07-28T05:03:46.966Z,96.96
2022-07-28T05:04:50.875Z,95.94
2022-07-28T05:05:54.392Z,95.61
2022-07-28T05:06:56.634Z,96.38
2022-07-28T05:07:58.312Z,95.77
2022-07-28T05:08:59.896Z,96.03
2022-07-28T05:10:01.999Z,95.36
2022-07-28T05:11:04.108Z,93.51
2022-07-28T05:12:06.699Z,93.44
2022-07-28T05:13:08.357Z,94.18
2022-07-28T05:14:12.425Z,94.43
2022-07-28T05:15:14.405Z,93.98
2022-07-28T05:16:16.034Z,94.21
2022-07-28T05:17:17.733Z,95.03
2022-07-28T05:18:19.366Z,94.69
2022-07-28T05:19:20.955Z,93.65
2022-07-28T05:20:22.579Z,92.05
2022-07-28T05:21:24.553Z,92.04
2022-07-28T05:22:26.209Z,90.19
2022-07-28T05:23:28.002Z,90.08
2022-07-28T05:24:29.666Z,90.74
2022-07-28T05:25:31.431Z,89.78
2022-07-28T05:26:33.017Z,90.46
2022-07-28T05:27:34.589Z,92.01
2022-07-28T05:28:36.387Z,90.16
2022-07-28T05:29:47.177Z,91.54
2022-07-28T05:30:49.700Z,92.08
2022-07-28T05:31:51.412Z,93.53
2022-07-28T05:32:53.996Z,93.80
2022-07-28T05:33:55.673Z,93.19
2022-07-28T05:34:59.394Z,92.88
2022-07-28T05:36:01.232Z,91.29
2022-07-28T05:37:03.251Z,91.42
2022-07-28T05:38:08.936Z,92.82
2022-07-28T05:39:13.019Z,93.55
2022-07-28T05:40:15.517Z,90.92
2022-07-28T05:41:17.159Z,92.57
2022-07-28T05:42:18.749Z,94.27
2022-07-28T05:43:20.682Z,93.73
2022-07-28T05:44:22.265Z,92.40
2022-07-28T05:45:24.049Z,92.78
2022-07-28T05:46:25.750Z,91.37
2022-07-28T05:47:27.336Z,91.85
2022-07-28T05:48:28.942Z,90.73
2022-07-28T05:49:30.652Z,90.82
2022-07-28T05:50:32.427Z,91.46
2022-07-28T05:51:38.392Z,89.42
2022-07-28T05:52:43.813Z,90.10
2022-07-28T05:53:45.393Z,90.66
2022-07-28T05:54:46.987Z,90.06
2022-07-28T05:56:00.720Z,88.71
2022-07-28T05:57:03.269Z,87.29
2022-07-28T05:58:05.007Z,87.44
2022-07-28T05:59:10.200Z,88.14
2022-07-28T06:00:18.014Z,87.08
2022-07-28T06:01:19.725Z,86.04
2022-07-28T06:02:21.470Z,85.47
2022-07-28T06:03:23.091Z,84.62
2022-07-28T06:04:26.798Z,84.40
2022-07-28T06:05:31.747Z,84.17
2022-07-28T06:06:33.369Z,83.09
2022-07-28T06:07:43.037Z,82.42
2022-07-28T06:08:47.316Z,80.48
2022-07-28T06:09:49.114Z,81.62
2022-07-28T06:11:09.361Z,81.16
2022-07-28T06:12:11.165Z,83.87
2022-07-28T06:13:14.747Z,84.40
2022-07-28T06:14:16.630Z,85.07
2022-07-28T06:15:21.624Z,84.64
2022-07-28T06:16:23.613Z,82.00
2022-07-28T06:17:25.298Z,82.28
2022-07-28T06:18:26.980Z,82.46
2022-07-28T06:19:28.605Z,82.92
2022-07-28T06:20:30.272Z,81.44
2022-07-28T06:21:33.002Z,81.85
2022-07-28T06:22:52.920Z,80.62
2022-07-28T06:23:54.523Z,82.11
2022-07-28T06:24:56.157Z,81.21
2022-07-28T06:25:57.708Z,80.65
2022-07-28T06:27:01.316Z,81.37
2022-07-28T06:28:03.437Z,82.23
2022-07-28T06:29:05.095Z,81.94
2022-07-28T06:30:08.081Z,81.67
2022-07-28T06:31:09.688Z,81.71
2022-07-28T06:32:11.444Z,81.45
2022-07-28T06:33:17.162Z,83.59
2022-07-28T06:34:19.145Z,81.30
2022-07-28T06:35:25.151Z,80.98
2022-07-28T06:36:26.752Z,79.63
2022-07-28T06:37:28.312Z,80.03
2022-07-28T06:38:31.298Z,79.99
2022-07-28T06:39:32.888Z,80.15
2022-07-28T06:40:34.657Z,80.72
2022-07-28T06:41:41.321Z,81.11
2022-07-28T06:42:43.641Z,81.21
2022-07-28T06:43:45.294Z,81.98
2022-07-28T06:44:58.465Z,81.35
2022-07-28T06:46:01.189Z,80.62
2022-07-28T06:47:02.864Z,80.07
2022-07-28T06:48:04.879Z,79.69
2022-07-28T06:49:06.535Z,80.56
2022-07-28T06:50:24.676Z,78.01
2022-07-28T06:51:28.798Z,77.97
2022-07-28T06:52:30.446Z,77.52
2022-07-28T06:53:33.685Z,77.71
2022-07-28T06:54:35.981Z,78.73
2022-07-28T06:55:38.596Z,76.82
2022-07-28T06:56:42.884Z,75.23
2022-07-28T06:57:51.260Z,73.13
2022-07-28T06:58:52.941Z,74.29
2022-07-28T06:59:55.083Z,74.18
2022-07-28T07:00:57.485Z,76.79
2022-07-28T07:02:01.873Z,74.71
2022-07-28T07:03:03.649Z,74.19
2022-07-28T07:04:05.830Z,76.00
2022-07-28T07:05:09.995Z,78.21
2022-07-28T07:06:11.606Z,77.28
2022-07-28T07:07:17.084Z,76.31
2022-07-28T07:08:20.854Z,75.40
2022-07-28T07:09:22.649Z,76.67
2022-07-28T07:10:24.349Z,74.34
2022-07-28T07:11:26.873Z,74.06
2022-07-28T07:12:28.499Z,74.06
2022-07-28T07:13:30.209Z,73.67
2022-07-28T07:14:32.134Z,73.92
2022-07-28T07:15:34.837Z,72.41
2022-07-28T07:16:37.060Z,70.08
2022-07-28T07:17:38.758Z,71.15
2022-07-28T07:18:40.563Z,68.96
2022-07-28T07:19:42.203Z,69.27
2022-07-28T07:20:43.849Z,70.67
2022-07-28T07:21:45.437Z,67.96
2022-07-28T07:22:47.795Z,70.11
2022-07-28T07:23:49.855Z,71.62
2022-07-28T07:24:54.970Z,71.75
2022-07-28T07:25:58.889Z,70.88
2022-07-28T07:27:00.697Z,71.65
2022-07-28T07:28:02.296Z,70.49
2022-07-28T07:29:05.512Z,69.80
2022-07-28T07:30:08.846Z,69.47
2022-07-28T07:31:10.506Z,68.51
2022-07-28T07:32:12.270Z,67.39
2022-07-28T07:33:14.162Z,68.31
2022-07-28T07:34:16.885Z,67.71
2022-07-28T07:35:19.249Z,68.56
2022-07-28T07:36:21.540Z,66.97
2022-07-28T07:37:24.790Z,68.48
2022-07-28T07:38:29.289Z,67.49
2022-07-28T07:39:31.153Z,67.02
2022-07-28T07:40:32.971Z,66.86
2022-07-28T07:41:34.582Z,69.02
2022-07-28T07:42:36.467Z,69.20
2022-07-28T07:43:38.274Z,70.42
2022-07-28T07:44:39.844Z,69.36
2022-07-28T07:45:41.628Z,68.83
2022-07-28T07:46:43.294Z,68.96
2022-07-28T07:47:44.929Z,67.10
2022-07-28T07:48:46.629Z,67.02
2022-07-28T07:49:48.686Z,67.05
2022-07-28T07:50:53.794Z,69.67
2022-07-28T07:51:55.910Z,68.66
2022-07-28T07:52:57.654Z,68.57
2022-07-28T07:53:59.225Z,68.03
2022-07-28T07:55:01.084Z,68.82
2022-07-28T07:56:03.509Z,69.27
2022-07-28T07:57:05.290Z,69.40
2022-07-28T07:58:06.959Z,69.09
2022-07-28T07:59:08.541Z,67.80
2022-07-28T08:00:28.048Z,68.46
2022-07-28T08:01:30.993Z,70.10
2022-07-28T08:02:32.660Z,70.58
2022-07-28T08:03:34.221Z,71.80
2022-07-28T08:04:38.503Z,70.08
2022-07-28T08:05:40.759Z,70.33
2022-07-28T08:06:42.337Z,70.22
2022-07-28T08:07:44.428Z,71.37
2022-07-28T08:08:48.623Z,71.46
2022-07-28T08:09:50.591Z,72.45
2022-07-28T08:10:54.326Z,71.47
2022-07-28T08:11:55.962Z,74.21
2022-07-28T08:12:57.566Z,72.99
2022-07-28T08:13:59.195Z,75.93
2022-07-28T08:15:01.079Z,76.49
2022-07-28T08:16:03.928Z,76.58
2022-07-28T08:17:05.644Z,77.87
2022-07-28T08:18:07.322Z,77.02
2022-07-28T08:19:09.007Z,77.33
2022-07-28T08:20:10.881Z,77.49
2022-07-28T08:21:13.346Z,78.83
2022-07-28T08:22:15.903Z,81.15
2022-07-28T08:23:19.575Z,80.09
2022-07-28T08:24:32.735Z,81.46
2022-07-28T08:25:37.577Z,79.62
2022-07-28T08:26:39.208Z,79.00
2022-07-28T08:27:41.685Z,79.65
2022-07-28T08:28:43.673Z,80.65
2022-07-28T08:29:45.456Z,79.71
2022-07-28T08:30:47.066Z,77.14
2022-07-28T08:31:49.024Z,76.74
2022-07-28T08:32:56.333Z,77.30
2022-07-28T08:33:58.936Z,77.00
2022-07-28T08:35:31.226Z,77.11
2022-07-28T08:36:22.859Z,78.32
2022-07-28T08:37:24.536Z,77.32
2022-07-28T08:38:26.861Z,77.00
2022-07-28T08:39:29.307Z,78.42
2022-07-28T08:40:34.246Z,78.49
2022-07-28T08:41:46.985Z,76.30
2022-07-28T08:43:00.657Z,76.36
2022-07-28T08:44:06.252Z,76.56
2022-07-28T08:45:08.634Z,77.50
2022-07-28T08:46:11.317Z,74.91
2022-07-28T08:47:14.143Z,75.04
2022-07-28T08:48:18.262Z,74.99
2022-07-28T08:49:20.746Z,74.50
2022-07-28T08:50:26.002Z,75.50
2022-07-28T08:51:28.512Z,76.23
2022-07-28T08:52:32.001Z,75.86
2022-07-28T08:53:37.058Z,74.56
2022-07-28T08:54:43.752Z,73.94
2022-07-28T08:55:45.773Z,74.90
2022-07-28T08:56:48.402Z,73.38
2022-07-28T08:57:50.926Z,74.92
2022-07-28T08:58:52.798Z,74.94
2022-07-28T08:59:54.870Z,71.91
2022-07-28T09:00:56.900Z,72.73
2022-07-28T09:01:58.713Z,72.74
2022-07-28T09:03:03.319Z,71.82
2022-07-28T09:04:07.016Z,71.76
2022-07-28T09:05:09.210Z,71.73
2022-07-28T09:06:11.402Z,70.94
2022-07-28T09:07:14.012Z,72.13
2022-07-28T09:08:19.334Z,71.37
2022-07-28T09:09:22.434Z,72.70
2022-07-28T09:10:24.312Z,72.39
2022-07-28T09:11:28.397Z,70.38
2022-07-28T09:12:30.133Z,66.87
2022-07-28T09:13:31.804Z,69.31
2022-07-28T09:14:34.323Z,68.65
2022-07-28T09:15:37.592Z,69.17
2022-07-28T09:16:39.317Z,68.33
2022-07-28T09:17:42.263Z,68.79
2022-07-28T09:18:44.303Z,70.13
2022-07-28T09:19:45.911Z,69.29
2022-07-28T09:20:47.584Z,69.39
2022-07-28T09:21:49.590Z,68.55
2022-07-28T09:22:59.328Z,67.97
2022-07-28T09:24:01.494Z,68.71
2022-07-28T09:25:04.154Z,68.59
2022-07-28T09:26:12.337Z,67.57
2022-07-28T09:27:15.707Z,68.58
2022-07-28T09:28:20.179Z,68.35
2022-07-28T09:29:24.740Z,68.89
2022-07-28T09:30:34.617Z,69.39
2022-07-28T09:31:55.859Z,69.84
2022-07-28T09:33:42.294Z,69.27
2022-07-28T09:34:51.744Z,67.89
2022-07-28T09:35:56.383Z,69.04
2022-07-28T09:36:58.262Z,68.84
2022-07-28T09:38:00.155Z,70.32
2022-07-28T09:39:01.850Z,68.83
2022-07-28T09:40:11.913Z,69.39
2022-07-28T09:41:14.639Z,68.24
2022-07-28T09:42:19.910Z,68.94
2022-07-28T09:43:34.809Z,69.99
2022-07-28T09:44:37.103Z,68.55
2022-07-28T09:45:38.752Z,69.26
2022-07-28T09:46:40.512Z,71.21
2022-07-28T09:47:42.467Z,70.86
2022-07-28T09:48:50.434Z,70.33
2022-07-28T09:49:52.754Z,70.73
2022-07-28T09:51:11.347Z,70.69
2022-07-28T09:52:13.091Z,70.27
2022-07-28T09:53:27.582Z,69.25
2022-07-28T09:54:30.184Z,70.26
2022-07-28T09:55:35.435Z,71.71
2022-07-28T09:56:38.536Z,70.95
2022-07-28T09:57:41.595Z,69.35
2022-07-28T09:58:59.255Z,70.02
2022-07-28T10:00:02.240Z,69.05
2022-07-28T10:01:08.425Z,69.11
2022-07-28T10:02:10.913Z,69.04
2022-07-28T10:03:24.934Z,69.71
2022-07-28T10:04:30.038Z,69.72
2022-07-28T10:05:41.277Z,70.12
2022-07-28T10:06:43.047Z,68.38
2022-07-28T10:07:50.251Z,69.61
2022-07-28T10:08:53.402Z,69.88
2022-07-28T10:10:02.639Z,69.03
2022-07-28T10:11:04.446Z,69.73
2022-07-28T10:12:20.650Z,70.22
2022-07-28T10:13:23.081Z,70.75
2022-07-28T10:14:33.804Z,69.45
2022-07-28T10:15:54.105Z,71.17
2022-07-28T10:16:55.982Z,69.63
2022-07-28T10:17:57.721Z,69.04
2022-07-28T10:19:01.658Z,70.58
2022-07-28T10:20:07.330Z,68.73
2022-07-28T10:21:13.816Z,68.69
2022-07-28T10:22:18.339Z,68.42
2022-07-28T10:23:21.484Z,68.59
2022-07-28T10:24:25.264Z,67.24
2022-07-28T10:25:30.669Z,67.21
2022-07-28T10:26:37.849Z,65.38
2022-07-28T10:27:43.328Z,64.16
2022-07-28T10:28:51.896Z,62.04
2022-07-28T10:30:04.930Z,64.06
2022-07-28T10:31:11.835Z,65.24
2022-07-28T10:32:13.497Z,63.68
2022-07-28T10:33:15.904Z,63.81
2022-07-28T10:34:32.625Z,63.34
2022-07-28T10:35:46.839Z,64.18
2022-07-28T10:36:57.328Z,63.38
2022-07-28T10:38:02.745Z,62.65
2022-07-28T10:39:12.626Z,63.05
2022-07-28T10:40:16.630Z,63.43
2022-07-28T10:41:20.964Z,63.55
2022-07-28T10:42:22.903Z,62.94
2022-07-28T10:43:26.516Z,61.29
2022-07-28T10:44:29.902Z,61.28
2022-07-28T10:45:54.984Z,63.77
2022-07-28T10:46:54.217Z,62.28
2022-07-28T10:47:56.341Z,62.22
2022-07-28T10:48:58.412Z,62.13
2022-07-28T10:50:05.943Z,60.47
2022-07-28T10:51:08.048Z,63.49
2022-07-28T10:52:30.373Z,63.15
2022-07-28T10:53:43.425Z,62.94
2022-07-28T10:55:07.882Z,60.37
2022-07-28T10:56:18.779Z,61.51
2022-07-28T10:57:23.460Z,62.15
2022-07-28T10:58:45.266Z,61.14
2022-07-28T11:00:13.337Z,58.43
2022-07-28T11:01:54.129Z,59.19
2022-07-28T11:03:02.234Z,55.55
2022-07-28T11:04:47.960Z,55.96
2022-07-28T11:05:49.780Z,57.06
2022-07-28T11:06:51.548Z,56.55
2022-07-28T11:07:53.546Z,58.54
2022-07-28T11:08:56.693Z,57.69
2022-07-28T11:10:15.348Z,60.05
2022-07-28T11:11:46.575Z,59.24
2022-07-28T11:12:50.162Z,59.00
2022-07-28T11:13:51.766Z,57.87
2022-07-28T11:14:54.860Z,57.41
2022-07-28T11:16:17.294Z,57.96
2022-07-28T11:17:24.594Z,56.08
2022-07-28T11:19:36.687Z,58.61
2022-07-28T11:21:00.290Z,57.88
2022-07-28T11:22:18.849Z,58.59
2022-07-28T11:23:47.662Z,57.64
2022-07-28T11:25:19.683Z,60.12
2022-07-28T11:26:23.340Z,57.99
2022-07-28T11:28:00.469Z,57.44
2022-07-28T11:29:13.517Z,58.48
2022-07-28T11:30:35.800Z,56.87
2022-07-28T11:31:46.527Z,57.30
2022-07-28T11:32:50.810Z,57.59
2022-07-28T11:33:56.498Z,58.39
2022-07-28T11:35:09.067Z,56.52
2022-07-28T11:36:10.682Z,57.40
2022-07-28T11:37:15.251Z,56.95
2022-07-28T11:38:17.327Z,59.41
2022-07-28T11:39:27.056Z,54.49
2022-07-28T11:40:35.346Z,53.80
2022-07-28T11:41:37.717Z,53.40
2022-07-28T11:42:42.239Z,54.54
2022-07-28T11:43:44.416Z,53.06
2022-07-28T11:44:47.104Z,53.70
2022-07-28T11:45:55.941Z,53.03
2022-07-28T11:47:17.561Z,52.40
2022-07-28T11:48:25.363Z,54.54
2022-07-28T11:49:27.868Z,58.89
2022-07-28T11:50:30.488Z,55.35
2022-07-28T11:51:38.818Z,54.22
2022-07-28T11:52:54.858Z,53.96
2022-07-28T11:53:56.580Z,52.77
2022-07-28T11:54:58.514Z,51.84
2022-07-28T11:56:05.986Z,52.12
2022-07-28T11:57:11.948Z,52.40
2022-07-28T11:58:27.646Z,50.89
2022-07-28T11:59:39.784Z,51.37
2022-07-28T12:00:41.351Z,51.19
2022-07-28T12:01:57.220Z,49.06
2022-07-28T12:03:01.125Z,52.30
2022-07-28T12:04:11.862Z,51.50
2022-07-28T12:05:17.842Z,50.69
2022-07-28T12:06:28.933Z,52.14
2022-07-28T12:07:37.647Z,50.73
2022-07-28T12:08:57.115Z,52.51
2022-07-28T12:09:59.402Z,51.26
2022-07-28T12:11:00.988Z,51.04
2022-07-28T12:12:02.660Z,49.41
2022-07-28T12:13:07.676Z,48.71
2022-07-28T12:14:09.194Z,50.53
2022-07-28T12:15:15.575Z,51.51
2022-07-28T12:16:17.221Z,51.41
2022-07-28T12:17:18.983Z,51.54
2022-07-28T12:18:24.628Z,50.47
2022-07-28T12:19:32.651Z,50.80
2022-07-28T12:20:34.808Z,49.35
2022-07-28T12:21:48.348Z,50.87
2022-07-28T12:23:02.672Z,50.82
2022-07-28T12:24:08.630Z,50.16
2022-07-28T12:25:13.358Z,50.61
2022-07-28T12:26:31.289Z,51.02
2022-07-28T12:27:35.121Z,50.76
2022-07-28T12:28:39.295Z,50.48
2022-07-28T12:29:41.139Z,51.25
2022-07-28T12:30:42.864Z,51.71
2022-07-28T12:32:12.657Z,51.10
2022-07-28T12:33:29.610Z,51.32
2022-07-28T12:34:36.116Z,50.72
2022-07-28T12:35:40.995Z,50.68
2022-07-28T12:36:43.973Z,50.16
2022-07-28T12:37:53.221Z,51.74
2022-07-28T12:38:59.790Z,49.42
2022-07-28T12:40:13.313Z,50.22
2022-07-28T12:41:21.010Z,50.40
2022-07-28T12:42:35.784Z,50.19
2022-07-28T12:43:39.468Z,49.77
2022-07-28T12:44:48.630Z,48.67
2022-07-28T12:46:05.961Z,49.39
2022-07-28T12:47:13.775Z,50.74
2022-07-28T12:48:23.056Z,49.72
2022-07-28T12:49:26.959Z,48.83
2022-07-28T12:50:39.591Z,49.28
2022-07-28T12:51:52.860Z,49.40
2022-07-28T12:53:11.355Z,49.25
2022-07-28T12:54:16.173Z,48.77
2022-07-28T12:55:37.417Z,49.52
2022-07-28T12:56:54.730Z,48.43
2022-07-28T12:58:03.105Z,48.64
2022-07-28T12:59:16.376Z,48.45
2022-07-28T13:00:47.422Z,49.81
2022-07-28T13:02:00.274Z,51.35
2022-07-28T13:03:27.356Z,49.64
2022-07-28T13:04:40.285Z,48.88
2022-07-28T13:06:00.712Z,49.20
2022-07-28T13:07:02.782Z,47.79
2022-07-28T13:08:06.094Z,48.32
2022-07-28T13:09:07.954Z,47.71
2022-07-28T13:10:16.598Z,47.18
2022-07-28T13:12:40.420Z,49.21
2022-07-28T13:13:51.155Z,46.70
2022-07-28T13:14:55.478Z,48.55
2022-07-28T13:16:13.036Z,49.13
2022-07-28T13:17:14.834Z,50.82
2022-07-28T13:18:16.435Z,51.17
2022-07-28T13:19:21.788Z,50.23
2022-07-28T13:20:26.348Z,50.48
2022-07-28T13:21:57.166Z,52.29
2022-07-28T13:23:00.780Z,52.53
2022-07-28T13:24:03.263Z,54.99
2022-07-28T13:25:05.770Z,54.31
2022-07-28T13:26:07.849Z,52.30
2022-07-28T13:27:10.653Z,50.79
2022-07-28T13:28:26.193Z,52.75
2022-07-28T13:29:28.203Z,51.19
2022-07-28T13:30:29.823Z,52.80
2022-07-28T13:31:35.852Z,52.39
2022-07-28T13:32:38.215Z,50.61
2022-07-28T13:33:39.808Z,51.44
2022-07-28T13:34:42.469Z,49.49
2022-07-28T13:35:44.537Z,51.62
2022-07-28T13:36:46.311Z,51.32
2022-07-28T13:37:48.502Z,51.57
2022-07-28T13:38:50.158Z,49.59
2022-07-28T13:39:54.392Z,51.02
2022-07-28T13:40:56.553Z,48.63
2022-07-28T13:41:59.324Z,48.64
2022-07-28T13:43:01.082Z,49.84
2022-07-28T13:44:05.159Z,49.05
2022-07-28T13:45:07.975Z,49.00
2022-07-28T13:46:09.652Z,50.15
2022-07-28T13:47:11.641Z,51.14
2022-07-28T13:48:18.185Z,51.62
2022-07-28T13:49:22.193Z,50.53
2022-07-28T13:50:24.210Z,50.70
2022-07-28T13:51:25.865Z,49.68
2022-07-28T13:52:34.873Z,49.97
2022-07-28T13:53:37.619Z,50.08
2022-07-28T13:54:41.310Z,51.43
2022-07-28T13:55:42.864Z,50.10
2022-07-28T13:56:44.540Z,51.47
2022-07-28T13:57:46.328Z,51.22
2022-07-28T13:58:50.764Z,52.00